LIBDLFOB

Guest
Details From LIBD - Bari Palese Macchie
To LFOB - Beauvais-Tille
Flight Number -
Tags decoded
Created
Modified
Stats Distance 794 nm / 1,470 km
Max Altitude 0 ft / 0 m
Waypoints 3
Social Downloads 0
Likes 0
Share VATSIM

Download

Looking for another format? Having issues loading an existing format? Contact us
Advertisement - Login to hide

Notes

Requested: LIBD VIE VIE130 LFOB Unmatched points: VIE130

Route

LIBD VIE LFOB

ID Type Via Altitude Latitude Longitude Leg Dist Tot Dist Heading (true) Name
O LIBD APT - 0 ft / 0 m 41.13787˚ 16.75832˚ - 0 nm - Bari Palese Macchie
VIE VOR - 0 ft / 0 m 41.91274˚ 16.04914˚ 56 nm 56 nm 326° / 325° VIESTE VOR-DME
O LFOB APT - 0 ft / 0 m 49.45600˚ 2.11891˚ 737 nm 793 nm 313° / 303° Beauvais-Tille

Altitude Profile

Advertisement - Login to hide

Weather


0- 5 10 15 20 25 30 35+ Temperature / ° C

Clouds and Precipitation
Forecast for 2017-12-12 06:00 UTC. Updated an hour ago

Ground ~20,000 ft ~40,000 ft Winds

LIBD

Details ICAO LIBD (BRI)
Name Bari Palese Macchie
Region Italy
Timezone Europe/Rome (UTC+1.0)
Stats Elevation 177 ft / 54 m (AMSL)
Location 41.137865° 16.758318°
Runways 1
Magnetic Variation 3.736° E

METAR

LIBD 120220Z VRB03KT CAVOK 12/10 Q1014

Decode

TAF

TAF LIBD 112300Z 1200/1224 17014KT 9999 SCT030= TAF LIBP 112300Z 1200/1224 25020G40KT 9999 FEW040 BKN070 BECMG 1206/1208 25012KT

Decode

Departure Runways

ID Width Length Bearing (true) Bearing (mag) Surface Threshold Offset Overrun Length
07 148 ft / 45 m 9,262 ft / 2,823 m 69.39° 65.65° Asphalt 1,257 ft / 383 m 0 ft / 0 m
25 148 ft / 45 m 9,262 ft / 2,823 m 249.42° 245.68° Asphalt 0 ft / 0 m 194 ft / 59 m

LFOB

Details ICAO LFOB (BVA)
Name Beauvais-Tille
Region France
Timezone Europe/Paris (UTC+1.0)
Stats Elevation 358 ft / 109 m (AMSL)
Location 49.456000° 2.118914°
Runways 2
Magnetic Variation 0.474° E

METAR

LFOB 120230Z AUTO 27008KT CAVOK 01/00 Q1001 NOSIG

Decode

TAF

TAF TAF LFOB 112300Z 1200/1224 29010KT 9999 OVC025 TEMPO 1200/1203 2000 SHSNRA BKN013TCU BECMG 1221/1224 22010G20KT

Decode

Destination Runways

ID Width Length Bearing (true) Bearing (mag) Surface Threshold Offset Overrun Length
04 82 ft / 25 m 2,321 ft / 707 m 41.41° 40.94° Asphalt 0 ft / 0 m 0 ft / 0 m
12 148 ft / 45 m 7,954 ft / 2,424 m 123.73° 123.26° Asphalt 148 ft / 45 m 0 ft / 0 m
22 82 ft / 25 m 2,321 ft / 707 m 221.41° 220.94° Asphalt 0 ft / 0 m 0 ft / 0 m
30 148 ft / 45 m 7,954 ft / 2,424 m 303.75° 303.28° Asphalt 0 ft / 0 m 0 ft / 0 m

Approach Navaids

Runway Type Ident Frequency Range Bearing (true) Bearing (mag) Slope Elevation
12 Localiser BVT 111.15 MHz 18 nm / 33 km 123.73° 123.26° - 289 ft / 88 m (AMSL)
12 Glidescope BVT 111.15 MHz 10 nm / 19 km 125.00° 124.53° 3.00° 344 ft / 105 m (AMSL)
12 DME BVT 111.15 MHz 18 nm / 33 km - - - 344 ft / 105 m (AMSL)
30 Localiser BI 109.95 MHz 18 nm / 33 km 303.83° 303.36° - 327 ft / 100 m (AMSL)
30 Glidescope BI 109.95 MHz 10 nm / 19 km 305.00° 304.53° 3.00° 305 ft / 93 m (AMSL)
30 DME BI 109.95 MHz 18 nm / 33 km - - - 303 ft / 92 m (AMSL)

Popular Alternatives